createdAt,value
2019-03-16T00:00:29.630Z,90.00
2019-03-16T00:03:00.094Z,90.00
2019-03-16T00:05:30.497Z,90.00
2019-03-16T00:08:01.012Z,89.90
2019-03-16T00:10:31.378Z,89.70
2019-03-16T00:13:02.479Z,89.70
2019-03-16T00:15:32.830Z,89.40
2019-03-16T00:18:03.593Z,89.60
2019-03-16T00:20:33.959Z,90.10
2019-03-16T00:23:04.327Z,90.20
2019-03-16T00:25:34.677Z,90.10
2019-03-16T00:28:16.752Z,89.90
2019-03-16T00:30:47.098Z,90.30
2019-03-16T00:33:17.486Z,90.20
2019-03-16T00:35:47.826Z,90.30
2019-03-16T00:38:18.200Z,90.50
2019-03-16T00:40:48.537Z,90.50
2019-03-16T00:43:18.930Z,90.50
2019-03-16T00:45:49.276Z,90.70
2019-03-16T00:48:19.654Z,90.70
2019-03-16T00:50:50.028Z,90.80
2019-03-16T00:53:20.365Z,91.10
2019-03-16T00:55:51.871Z,91.00
2019-03-16T00:58:22.234Z,91.10
2019-03-16T01:00:52.622Z,91.10
2019-03-16T01:03:22.976Z,91.40
2019-03-16T01:05:53.563Z,91.30
2019-03-16T01:08:24.066Z,91.60
2019-03-16T01:10:54.486Z,91.60
2019-03-16T01:13:24.827Z,91.50
2019-03-16T01:15:55.222Z,91.70
2019-03-16T01:18:25.573Z,91.70
2019-03-16T01:20:56.045Z,92.10
2019-03-16T01:23:26.400Z,92.10
2019-03-16T01:25:56.768Z,92.10
2019-03-16T01:28:27.138Z,92.40
2019-03-16T01:30:57.489Z,92.20
2019-03-16T01:33:27.853Z,92.40
2019-03-16T01:35:58.320Z,92.60
2019-03-16T01:38:28.777Z,92.50
2019-03-16T01:40:59.250Z,92.50
2019-03-16T01:43:29.586Z,92.60
2019-03-16T01:45:59.961Z,92.70
2019-03-16T01:48:30.306Z,92.70
2019-03-16T01:51:00.687Z,92.70
2019-03-16T01:53:31.433Z,92.70
2019-03-16T01:56:01.844Z,92.70
2019-03-16T01:58:32.483Z,92.90
2019-03-16T02:01:02.965Z,92.80
2019-03-16T02:03:33.328Z,92.90
2019-03-16T02:06:03.665Z,92.80
2019-03-16T02:08:34.091Z,93.00
2019-03-16T02:11:04.450Z,93.10
2019-03-16T02:13:34.818Z,93.20
2019-03-16T02:16:10.734Z,93.20
2019-03-16T02:18:37.161Z,93.10
2019-03-16T02:21:07.512Z,93.10
2019-03-16T02:23:39.062Z,93.00
2019-03-16T02:26:09.399Z,92.90
2019-03-16T02:28:39.778Z,93.00
2019-03-16T02:31:10.150Z,92.90
2019-03-16T02:33:40.579Z,92.80
2019-03-16T02:36:10.957Z,92.80
2019-03-16T02:38:41.362Z,92.80
2019-03-16T02:41:11.727Z,92.70
2019-03-16T02:43:42.457Z,92.70
2019-03-16T02:46:12.826Z,92.70
2019-03-16T02:48:43.162Z,93.00
2019-03-16T02:51:13.553Z,92.70
2019-03-16T02:53:43.895Z,92.70
2019-03-16T02:56:14.259Z,92.70
2019-03-16T02:59:03.650Z,92.80
2019-03-16T03:01:34.241Z,92.90
2019-03-16T03:04:04.601Z,92.90
2019-03-16T03:06:34.984Z,92.90
2019-03-16T03:09:08.668Z,93.00
2019-03-16T03:11:39.042Z,93.10
2019-03-16T03:14:09.381Z,93.10
2019-03-16T03:16:39.776Z,93.20
2019-03-16T03:19:10.136Z,93.30
2019-03-16T03:21:40.494Z,93.30
2019-03-16T03:24:10.919Z,93.40
2019-03-16T03:26:41.306Z,93.40
2019-03-16T03:29:11.702Z,93.40
2019-03-16T03:31:42.083Z,93.50
2019-03-16T03:34:12.443Z,93.50
2019-03-16T03:36:42.790Z,93.50
2019-03-16T03:39:13.233Z,93.60
2019-03-16T03:41:43.597Z,93.60
2019-03-16T03:44:14.029Z,93.60
2019-03-16T03:46:44.346Z,93.70
2019-03-16T03:49:14.728Z,93.80
2019-03-16T03:51:45.122Z,93.80
2019-03-16T03:54:15.454Z,93.80
2019-03-16T03:56:57.464Z,93.90
2019-03-16T03:59:27.745Z,94.00
2019-03-16T04:01:58.154Z,94.20
2019-03-16T04:04:28.511Z,94.30
2019-03-16T04:06:59.044Z,94.20
2019-03-16T04:09:29.530Z,94.20
2019-03-16T04:11:59.915Z,94.20
2019-03-16T04:14:30.318Z,94.40
2019-03-16T04:17:00.695Z,94.40
2019-03-16T04:19:31.073Z,94.40
2019-03-16T04:22:01.845Z,94.30
2019-03-16T04:24:32.213Z,94.40
2019-03-16T04:27:15.066Z,94.40
2019-03-16T04:29:34.543Z,94.40
2019-03-16T04:32:05.081Z,94.30
2019-03-16T04:34:35.462Z,94.20
2019-03-16T04:37:05.837Z,94.40
2019-03-16T04:39:36.313Z,94.40
2019-03-16T04:42:06.650Z,94.40
2019-03-16T04:44:37.105Z,94.60
2019-03-16T04:47:07.467Z,94.40
2019-03-16T04:49:37.889Z,94.40
2019-03-16T04:52:08.234Z,94.40
2019-03-16T04:54:38.595Z,94.60
2019-03-16T04:57:08.985Z,94.60
2019-03-16T04:59:39.338Z,94.70
2019-03-16T05:02:09.699Z,94.70
2019-03-16T05:04:42.736Z,94.70
2019-03-16T05:07:12.182Z,94.70
2019-03-16T05:09:42.582Z,94.70
2019-03-16T05:12:12.957Z,94.80
2019-03-16T05:14:43.321Z,94.80
2019-03-16T05:17:13.679Z,94.90
2019-03-16T05:19:45.133Z,94.60
2019-03-16T05:22:16.442Z,94.90
2019-03-16T05:24:46.803Z,95.00
2019-03-16T05:27:17.229Z,95.00
2019-03-16T05:29:47.583Z,94.90
2019-03-16T05:32:17.941Z,95.00
2019-03-16T05:34:56.353Z,95.00
2019-03-16T05:37:20.253Z,95.10
2019-03-16T05:39:50.733Z,95.10
2019-03-16T05:42:21.074Z,95.20
2019-03-16T05:44:51.479Z,95.10
2019-03-16T05:47:22.154Z,95.00
2019-03-16T05:49:52.615Z,95.20
2019-03-16T05:52:22.957Z,95.50
2019-03-16T05:54:53.462Z,95.10
2019-03-16T05:57:23.769Z,95.20
2019-03-16T05:59:55.425Z,95.40
2019-03-16T06:02:25.778Z,95.40
2019-03-16T06:05:09.409Z,95.60
2019-03-16T06:07:28.234Z,95.20
2019-03-16T06:09:58.979Z,95.20
2019-03-16T06:12:29.314Z,95.10
2019-03-16T06:15:00.166Z,95.10
2019-03-16T06:17:30.746Z,95.10
2019-03-16T06:20:01.227Z,95.10
2019-03-16T06:22:31.633Z,94.90
2019-03-16T06:25:02.095Z,95.00
2019-03-16T06:27:33.501Z,94.80
2019-03-16T06:30:04.206Z,94.90
2019-03-16T06:32:35.608Z,94.70
2019-03-16T06:35:06.236Z,94.70
2019-03-16T06:37:36.570Z,94.70
2019-03-16T06:40:07.210Z,94.40
2019-03-16T06:42:37.545Z,94.50
2019-03-16T06:45:08.056Z,94.70
2019-03-16T06:47:38.392Z,94.60
2019-03-16T06:50:09.853Z,94.40
2019-03-16T06:52:40.237Z,94.50
2019-03-16T06:55:10.580Z,94.40
2019-03-16T06:57:40.942Z,94.20
2019-03-16T07:00:11.837Z,94.40
2019-03-16T07:02:42.184Z,93.80
2019-03-16T07:05:12.704Z,93.70
2019-03-16T07:07:43.530Z,92.80
2019-03-16T07:10:14.012Z,92.90
2019-03-16T07:12:45.434Z,92.50
2019-03-16T07:15:15.909Z,93.00
2019-03-16T07:17:46.260Z,92.60
2019-03-16T07:20:18.009Z,92.50
2019-03-16T07:22:48.365Z,92.40
2019-03-16T07:25:18.756Z,92.50
2019-03-16T07:27:49.160Z,92.60
2019-03-16T07:30:19.508Z,92.60
2019-03-16T07:32:50.330Z,92.10
2019-03-16T07:35:20.755Z,92.10
2019-03-16T07:37:51.193Z,92.40
2019-03-16T07:40:21.545Z,92.30
2019-03-16T07:42:52.018Z,92.30
2019-03-16T07:45:22.361Z,92.20
2019-03-16T07:47:52.782Z,92.60
2019-03-16T07:50:23.156Z,92.50
2019-03-16T07:52:54.124Z,92.60
2019-03-16T07:55:24.527Z,92.50
2019-03-16T07:57:55.002Z,92.50
2019-03-16T08:00:25.350Z,92.20
2019-03-16T08:02:55.701Z,92.20
2019-03-16T08:05:26.417Z,91.90
2019-03-16T08:07:56.761Z,91.80
2019-03-16T08:10:27.194Z,91.80
2019-03-16T08:12:57.538Z,91.70
2019-03-16T08:15:28.298Z,91.50
2019-03-16T08:17:59.494Z,91.40
2019-03-16T08:20:31.519Z,91.50
2019-03-16T08:23:01.862Z,91.00
2019-03-16T08:25:32.254Z,91.30
2019-03-16T08:28:02.603Z,91.10
2019-03-16T08:30:33.066Z,90.80
2019-03-16T08:33:03.410Z,91.40
2019-03-16T08:35:34.209Z,91.50
2019-03-16T08:38:04.559Z,90.80
2019-03-16T08:40:34.933Z,90.80
2019-03-16T08:43:06.461Z,90.70
2019-03-16T08:45:36.930Z,90.70
2019-03-16T08:48:07.273Z,90.70
2019-03-16T08:50:37.674Z,90.70
2019-03-16T08:53:08.005Z,90.50
2019-03-16T08:55:38.369Z,90.90
2019-03-16T08:58:08.713Z,90.50
2019-03-16T09:00:39.138Z,91.30
2019-03-16T09:03:09.482Z,90.10
2019-03-16T09:05:39.860Z,90.00
2019-03-16T09:08:10.214Z,90.40
2019-03-16T09:10:41.806Z,90.50
2019-03-16T09:13:12.157Z,89.70
2019-03-16T09:15:42.979Z,88.10
2019-03-16T09:18:13.321Z,87.60
2019-03-16T09:20:44.048Z,87.80
2019-03-16T09:23:14.702Z,88.20
2019-03-16T09:25:47.133Z,87.90
2019-03-16T09:28:18.828Z,87.70
2019-03-16T09:30:49.578Z,87.50
2019-03-16T09:33:20.072Z,86.80
2019-03-16T09:35:50.934Z,87.80
2019-03-16T09:38:21.277Z,87.50
2019-03-16T09:40:51.671Z,87.50
2019-03-16T09:43:22.053Z,87.50
2019-03-16T09:45:52.441Z,87.80
2019-03-16T09:48:22.826Z,88.00
2019-03-16T09:50:53.186Z,84.80
2019-03-16T09:53:23.574Z,85.60
2019-03-16T09:55:53.929Z,86.30
2019-03-16T09:58:31.187Z,84.50
2019-03-16T10:00:56.313Z,85.20
2019-03-16T10:03:26.811Z,85.00
2019-03-16T10:05:57.558Z,82.90
2019-03-16T10:08:28.454Z,83.60
2019-03-16T10:10:58.955Z,83.20
2019-03-16T10:13:29.347Z,83.80
2019-03-16T10:15:59.765Z,84.40
2019-03-16T10:18:30.158Z,82.70
2019-03-16T10:21:00.515Z,82.30
2019-03-16T10:23:30.907Z,83.00
2019-03-16T10:26:01.267Z,82.60
2019-03-16T10:28:42.919Z,80.80
2019-03-16T10:31:03.814Z,79.60
2019-03-16T10:33:35.277Z,80.00
2019-03-16T10:36:06.014Z,79.20
2019-03-16T10:38:38.401Z,79.00
2019-03-16T10:41:08.713Z,78.20
2019-03-16T10:43:39.181Z,80.20
2019-03-16T10:46:09.888Z,81.10
2019-03-16T10:48:40.383Z,80.60
2019-03-16T10:51:10.726Z,79.50
2019-03-16T10:53:41.121Z,81.80
2019-03-16T10:56:11.469Z,78.80
2019-03-16T10:58:42.234Z,80.90
2019-03-16T11:01:12.605Z,79.20
2019-03-16T11:03:43.336Z,80.60
2019-03-16T11:06:13.678Z,80.80
2019-03-16T11:08:44.069Z,78.90
2019-03-16T11:11:14.546Z,78.80
2019-03-16T11:13:44.910Z,81.00
2019-03-16T11:16:15.310Z,81.10
2019-03-16T11:18:45.673Z,81.40
2019-03-16T11:21:16.089Z,82.00
2019-03-16T11:23:46.434Z,83.00
2019-03-16T11:26:17.335Z,82.20
2019-03-16T11:28:47.689Z,82.40
2019-03-16T11:31:18.453Z,80.40
2019-03-16T11:33:49.981Z,80.70
2019-03-16T11:36:20.369Z,80.70
2019-03-16T11:38:50.770Z,80.00
2019-03-16T11:41:21.654Z,79.60
2019-03-16T11:43:52.006Z,78.80
2019-03-16T11:46:22.538Z,80.20
2019-03-16T11:48:52.937Z,82.00
2019-03-16T11:51:23.345Z,83.30
2019-03-16T11:53:53.726Z,84.40
2019-03-16T11:56:24.102Z,87.80
2019-03-16T11:58:54.489Z,84.90
2019-03-16T12:01:24.954Z,85.50
2019-03-16T12:03:55.548Z,85.80
2019-03-16T12:06:25.957Z,86.00
2019-03-16T12:08:56.323Z,86.00
2019-03-16T12:11:38.902Z,84.50
2019-03-16T12:14:09.261Z,86.30
2019-03-16T12:16:39.617Z,86.60
2019-03-16T12:19:09.991Z,88.40
2019-03-16T12:21:40.374Z,89.40
2019-03-16T12:24:10.749Z,90.30
2019-03-16T12:26:41.094Z,91.80
2019-03-16T12:29:11.469Z,92.10
2019-03-16T12:31:41.826Z,92.50
2019-03-16T12:34:12.302Z,93.50
2019-03-16T12:36:42.651Z,93.20
2019-03-16T12:39:13.824Z,94.70
2019-03-16T12:41:44.501Z,94.50
2019-03-16T12:44:14.946Z,94.10
2019-03-16T12:46:57.018Z,94.20
2019-03-16T12:49:27.430Z,94.90
2019-03-16T12:51:58.161Z,94.80
2019-03-16T12:54:30.993Z,95.50
2019-03-16T12:57:01.339Z,95.70
2019-03-16T12:59:31.806Z,95.50
2019-03-16T13:02:02.190Z,95.20
2019-03-16T13:04:32.598Z,95.80
2019-03-16T13:07:02.966Z,96.10
2019-03-16T13:09:33.449Z,96.30
2019-03-16T13:12:03.821Z,96.50
2019-03-16T13:14:34.249Z,97.00
2019-03-16T13:17:04.598Z,97.10
2019-03-16T13:19:35.453Z,97.10
2019-03-16T13:22:05.793Z,97.50
2019-03-16T13:24:36.187Z,97.50
2019-03-16T13:27:06.582Z,97.40
2019-03-16T13:29:37.045Z,98.40
2019-03-16T13:32:07.382Z,98.30
2019-03-16T13:34:37.742Z,98.70
2019-03-16T13:37:08.078Z,98.40
2019-03-16T13:39:39.519Z,98.30
2019-03-16T13:42:09.907Z,98.10
2019-03-16T13:44:40.249Z,98.50
2019-03-16T13:47:10.706Z,98.60
2019-03-16T13:49:41.134Z,98.70
2019-03-16T13:52:11.625Z,99.20
2019-03-16T13:54:42.362Z,98.50
2019-03-16T13:57:13.814Z,98.30
2019-03-16T13:59:45.250Z,98.60
2019-03-16T14:02:15.730Z,98.70
2019-03-16T14:04:46.375Z,98.80
2019-03-16T14:07:16.817Z,98.80
2019-03-16T14:09:47.173Z,99.10
2019-03-16T14:12:17.586Z,99.20
2019-03-16T14:14:49.311Z,98.90
2019-03-16T14:17:19.699Z,99.30
2019-03-16T14:19:50.118Z,99.40
2019-03-16T14:22:20.497Z,98.90
2019-03-16T14:24:50.861Z,98.50
2019-03-16T14:27:21.274Z,98.70
2019-03-16T14:29:51.634Z,98.90
2019-03-16T14:32:23.846Z,98.70
2019-03-16T14:34:54.142Z,98.70
2019-03-16T14:37:24.850Z,99.00
2019-03-16T14:39:55.494Z,98.80
2019-03-16T14:42:25.982Z,98.90
2019-03-16T14:44:56.357Z,98.90
2019-03-16T14:47:26.736Z,98.80
2019-03-16T14:49:57.138Z,99.60
2019-03-16T14:52:27.461Z,99.40
2019-03-16T14:54:57.845Z,99.00
2019-03-16T14:57:28.203Z,99.40
2019-03-16T14:59:59.583Z,99.80
2019-03-16T15:02:30.069Z,99.70
2019-03-16T15:05:00.483Z,99.70
2019-03-16T15:07:30.906Z,99.90
2019-03-16T15:10:01.329Z,99.80
2019-03-16T15:12:31.722Z,99.90
2019-03-16T15:15:02.109Z,99.90
2019-03-16T15:17:32.910Z,99.90
2019-03-16T15:20:03.421Z,99.90
2019-03-16T15:22:33.775Z,99.90
2019-03-16T15:25:05.524Z,99.90
2019-03-16T15:27:36.420Z,99.90
2019-03-16T15:30:09.785Z,99.90
2019-03-16T15:32:40.135Z,99.90
2019-03-16T15:35:10.884Z,99.90
2019-03-16T15:37:41.267Z,99.90
2019-03-16T15:40:12.255Z,99.90
2019-03-16T15:42:42.598Z,99.90
2019-03-16T15:45:16.168Z,99.90
2019-03-16T15:47:46.514Z,99.90
2019-03-16T15:50:17.103Z,99.90
2019-03-16T15:52:47.431Z,99.90
2019-03-16T15:55:17.796Z,99.90
2019-03-16T15:57:48.893Z,99.90
2019-03-16T16:00:19.250Z,99.90
2019-03-16T16:03:01.782Z,99.90
2019-03-16T16:05:32.198Z,99.90
2019-03-16T16:08:04.247Z,99.90
2019-03-16T16:10:34.710Z,99.90
2019-03-16T16:13:05.229Z,99.90
2019-03-16T16:15:35.762Z,99.90
2019-03-16T16:18:06.153Z,99.90
2019-03-16T16:20:36.540Z,99.90
2019-03-16T16:23:06.988Z,99.90
2019-03-16T16:25:37.474Z,99.90
2019-03-16T16:28:07.861Z,99.90
2019-03-16T16:30:38.405Z,99.90
2019-03-16T16:33:20.893Z,99.90
2019-03-16T16:35:53.323Z,99.90
2019-03-16T16:38:24.128Z,99.90
2019-03-16T16:40:54.620Z,99.90
2019-03-16T16:43:25.700Z,99.90
2019-03-16T16:45:56.546Z,99.90
2019-03-16T16:48:27.115Z,99.90
2019-03-16T16:50:57.569Z,99.90
2019-03-16T16:53:28.006Z,99.90
2019-03-16T16:55:58.589Z,99.90
2019-03-16T16:58:29.089Z,99.90
2019-03-16T17:01:00.774Z,99.90
2019-03-16T17:03:31.225Z,99.90
2019-03-16T17:06:01.576Z,99.90
2019-03-16T17:08:32.025Z,99.90
2019-03-16T17:11:02.775Z,99.90
2019-03-16T17:13:33.655Z,99.90
2019-03-16T17:16:06.286Z,99.90
2019-03-16T17:18:36.863Z,99.90
2019-03-16T17:21:07.477Z,99.90
2019-03-16T17:23:39.271Z,99.90
2019-03-16T17:26:10.284Z,99.90
2019-03-16T17:28:41.153Z,99.90
2019-03-16T17:31:13.586Z,99.90
2019-03-16T17:33:44.190Z,99.90
2019-03-16T17:36:16.661Z,99.90
2019-03-16T17:38:47.058Z,99.90
2019-03-16T17:41:17.803Z,99.90
2019-03-16T17:43:48.665Z,99.90
2019-03-16T17:46:29.433Z,99.90
2019-03-16T17:48:59.990Z,99.90
2019-03-16T17:51:30.462Z,99.90
2019-03-16T17:54:01.311Z,99.90
2019-03-16T17:56:31.684Z,99.90
2019-03-16T17:59:02.666Z,99.90
2019-03-16T18:01:33.417Z,99.90
2019-03-16T18:04:03.882Z,99.90
2019-03-16T18:06:34.628Z,99.90
2019-03-16T18:09:09.591Z,99.90
2019-03-16T18:11:40.346Z,99.90
2019-03-16T18:14:11.269Z,99.90
2019-03-16T18:16:41.656Z,99.90
2019-03-16T18:19:12.490Z,99.90
2019-03-16T18:21:43.238Z,99.90
2019-03-16T18:24:14.858Z,99.90
2019-03-16T18:26:45.272Z,99.90
2019-03-16T18:29:15.693Z,99.90
2019-03-16T18:31:46.382Z,99.90
2019-03-16T18:34:16.830Z,99.90
2019-03-16T18:36:47.217Z,99.90
2019-03-16T18:39:17.573Z,99.90
2019-03-16T18:41:47.962Z,99.90
2019-03-16T18:44:18.324Z,99.90
2019-03-16T18:46:48.721Z,99.90
2019-03-16T18:49:19.110Z,99.90
2019-03-16T18:51:49.609Z,99.90
2019-03-16T18:54:20.066Z,99.90
2019-03-16T18:56:50.475Z,99.90
2019-03-16T18:59:23.770Z,99.90
2019-03-16T19:01:54.626Z,99.90
2019-03-16T19:04:25.134Z,99.90
2019-03-16T19:06:55.680Z,99.90
2019-03-16T19:09:26.254Z,99.90
2019-03-16T19:11:57.120Z,99.90
2019-03-16T19:14:29.067Z,99.90
2019-03-16T19:16:59.486Z,99.90
2019-03-16T19:19:30.318Z,99.90
2019-03-16T19:22:00.665Z,99.90
2019-03-16T19:24:31.159Z,99.90
2019-03-16T19:27:01.609Z,99.90
2019-03-16T19:29:32.026Z,99.90
2019-03-16T19:32:02.458Z,99.90
2019-03-16T19:34:34.117Z,99.90
2019-03-16T19:37:04.705Z,99.90
2019-03-16T19:39:35.088Z,99.90
2019-03-16T19:42:17.305Z,99.90
2019-03-16T19:44:47.708Z,99.90
2019-03-16T19:47:18.086Z,99.90
2019-03-16T19:49:48.502Z,99.90
2019-03-16T19:52:18.941Z,99.90
2019-03-16T19:54:49.334Z,99.90
2019-03-16T19:57:19.702Z,99.90
2019-03-16T19:59:50.165Z,99.90
2019-03-16T20:02:20.874Z,99.90
2019-03-16T20:04:51.315Z,99.90
2019-03-16T20:07:23.034Z,99.90
2019-03-16T20:09:54.897Z,99.90
2019-03-16T20:12:25.288Z,99.90
2019-03-16T20:14:55.765Z,99.90
2019-03-16T20:17:26.272Z,99.90
2019-03-16T20:19:56.864Z,99.90
2019-03-16T20:22:27.353Z,99.90
2019-03-16T20:24:58.212Z,99.90
2019-03-16T20:27:28.670Z,99.90
2019-03-16T20:29:59.541Z,99.90
2019-03-16T20:32:29.904Z,99.90
2019-03-16T20:35:00.407Z,99.90
2019-03-16T20:37:32.598Z,99.90
2019-03-16T20:40:03.223Z,99.90
2019-03-16T20:42:33.706Z,99.90
2019-03-16T20:45:04.272Z,99.90
2019-03-16T20:47:34.605Z,99.90
2019-03-16T20:50:06.047Z,99.90
2019-03-16T20:52:36.806Z,99.90
2019-03-16T20:55:07.438Z,99.90
2019-03-16T20:57:37.914Z,99.90
2019-03-16T21:00:09.130Z,99.90
2019-03-16T21:02:39.586Z,99.90
2019-03-16T21:05:10.270Z,99.90
2019-03-16T21:07:40.620Z,99.90
2019-03-16T21:10:11.185Z,99.90
2019-03-16T21:12:41.601Z,99.90
2019-03-16T21:15:12.030Z,99.90
2019-03-16T21:17:42.389Z,99.90
2019-03-16T21:20:13.306Z,99.90
2019-03-16T21:22:43.658Z,99.90
2019-03-16T21:25:14.322Z,99.90
2019-03-16T21:27:44.647Z,99.90
2019-03-16T21:30:15.685Z,99.90
2019-03-16T21:32:46.420Z,99.90
2019-03-16T21:35:16.887Z,99.90
2019-03-16T21:37:47.221Z,99.90
2019-03-16T21:40:19.135Z,99.90
2019-03-16T21:42:49.474Z,99.90
2019-03-16T21:45:19.949Z,99.90
2019-03-16T21:47:59.375Z,99.90
2019-03-16T21:50:22.348Z,99.90
2019-03-16T21:52:52.781Z,99.90
2019-03-16T21:55:23.946Z,99.90
2019-03-16T21:57:54.305Z,99.90
2019-03-16T22:00:24.705Z,99.90
2019-03-16T22:02:55.060Z,99.90
2019-03-16T22:05:25.433Z,99.90
2019-03-16T22:07:55.879Z,99.90
2019-03-16T22:10:26.481Z,99.90
2019-03-16T22:12:56.924Z,99.90
2019-03-16T22:15:27.337Z,99.90
2019-03-16T22:17:57.690Z,99.90
2019-03-16T22:20:28.093Z,99.90
2019-03-16T22:22:58.470Z,99.90
2019-03-16T22:25:28.898Z,99.90
2019-03-16T22:27:59.284Z,99.90
2019-03-16T22:30:29.681Z,99.90
2019-03-16T22:33:00.042Z,99.90
2019-03-16T22:35:30.949Z,99.90
2019-03-16T22:38:01.599Z,99.90
2019-03-16T22:40:32.028Z,99.90
2019-03-16T22:43:02.414Z,99.90
2019-03-16T22:45:33.018Z,99.90
2019-03-16T22:48:03.370Z,99.90
2019-03-16T22:50:33.917Z,99.90
2019-03-16T22:53:04.308Z,99.90
2019-03-16T22:55:34.756Z,99.90
2019-03-16T22:58:05.113Z,99.90
2019-03-16T23:00:49.397Z,99.90
2019-03-16T23:03:19.820Z,99.90
2019-03-16T23:05:50.351Z,99.90
2019-03-16T23:08:20.847Z,99.90
2019-03-16T23:10:51.753Z,99.90
2019-03-16T23:13:22.250Z,99.90
2019-03-16T23:15:53.005Z,99.90
2019-03-16T23:18:23.393Z,99.90
2019-03-16T23:20:53.785Z,99.90
2019-03-16T23:23:24.158Z,99.90
2019-03-16T23:25:54.994Z,99.90
2019-03-16T23:28:25.498Z,99.90
2019-03-16T23:30:55.947Z,99.90
2019-03-16T23:33:26.435Z,99.90
2019-03-16T23:35:56.902Z,99.90
2019-03-16T23:38:27.394Z,99.90
2019-03-16T23:40:57.817Z,99.90
2019-03-16T23:43:28.241Z,99.90
2019-03-16T23:45:58.606Z,99.90
2019-03-16T23:48:29.110Z,99.90
2019-03-16T23:50:59.511Z,99.90
2019-03-16T23:53:29.915Z,99.90
2019-03-16T23:56:00.590Z,99.90
2019-03-16T23:58:31.005Z,99.70
